Time;durP1;ratioP1;P1;durP2;ratioP2;P2;SDS_P1;SDS_P2;PMS_P1;PMS_P2;Temp;Humidity;BMP_temperature;BMP_pressure;BME280_temperature;BME280_humidity;BME280_pressure;Samples;Min_cycle;Max_cycle;Signal;HPM_P1;HPM_P2
2022/07/20 00:01:05;;;;;;;6.75;2.83;;;25.20;76.90;;;;;;5052453;28;20111;-81
2022/07/20 00:03:31;;;;;;;6.43;2.78;;;25.10;77.20;;;;;;5081253;28;20044;-79
2022/07/20 00:05:59;;;;;;;10.90;3.30;;;25.00;77.20;;;;;;5046746;28;20102;-79
2022/07/20 00:11:21;;;;;;;16.00;3.70;;;24.80;77.80;;;;;;5077886;28;20045;-78
2022/07/20 00:13:52;;;;;;;9.50;3.00;;;24.80;77.80;;;;;;5035108;28;20044;-81
2022/07/20 00:16:19;;;;;;;8.65;2.80;;;24.70;78.00;;;;;;5036195;28;20486;-76
2022/07/20 00:18:45;;;;;;;6.50;2.72;;;24.60;78.10;;;;;;5048453;28;20039;-78
2022/07/20 00:21:11;;;;;;;4.53;2.85;;;24.70;77.80;;;;;;5054184;28;20043;-75
2022/07/20 00:23:36;;;;;;;14.63;3.17;;;24.60;78.10;;;;;;5085151;28;20033;-77
2022/07/20 00:26:02;;;;;;;9.10;3.10;;;24.60;78.10;;;;;;5049299;28;20077;-78
2022/07/20 00:28:28;;;;;;;7.82;2.90;;;24.60;78.20;;;;;;5052167;28;20040;-81
2022/07/20 00:30:54;;;;;;;8.75;3.28;;;24.50;78.00;;;;;;5071845;28;20048;-76
2022/07/20 00:33:19;;;;;;;12.85;3.20;;;24.50;78.10;;;;;;5051460;28;20329;-78
2022/07/20 00:35:45;;;;;;;5.38;2.78;;;24.40;78.20;;;;;;5083336;28;20084;-78
2022/07/20 00:38:11;;;;;;;8.52;2.70;;;24.40;78.20;;;;;;5081066;28;20072;-80
2022/07/20 00:40:36;;;;;;;5.72;2.83;;;24.30;78.30;;;;;;5069750;28;20503;-78
2022/07/20 00:43:02;;;;;;;5.78;2.63;;;24.30;78.50;;;;;;5084348;28;20379;-80
2022/07/20 00:45:28;;;;;;;18.75;3.25;;;24.30;78.50;;;;;;5067295;28;20502;-78
2022/07/20 00:47:53;;;;;;;9.38;2.83;;;24.20;78.50;;;;;;5086080;28;20037;-81
2022/07/20 00:50:19;;;;;;;8.60;2.83;;;24.20;78.70;;;;;;5055679;28;20094;-77
2022/07/20 00:52:44;;;;;;;7.65;3.00;;;24.10;78.90;;;;;;5066375;28;20462;-79
2022/07/20 00:55:10;;;;;;;10.25;3.30;;;24.10;79.00;;;;;;5053626;28;20037;-77
2022/07/20 00:57:36;;;;;;;6.78;2.78;;;24.00;79.20;;;;;;5066333;28;20052;-80
2022/07/20 01:00:07;;;;;;;14.00;2.97;;;23.90;79.40;;;;;;5054679;28;20036;-80
2022/07/20 01:02:33;;;;;;;10.75;2.90;;;23.90;79.80;;;;;;5038282;28;20774;-80
2022/07/20 01:04:59;;;;;;;8.60;2.85;;;23.80;79.80;;;;;;5056628;28;20036;-80
2022/07/20 01:07:25;;;;;;;5.50;3.33;;;23.80;80.80;;;;;;5068801;28;20101;-78
2022/07/20 01:09:51;;;;;;;13.20;2.95;;;23.70;80.30;;;;;;5051332;28;20036;-81
2022/07/20 01:12:16;;;;;;;7.22;3.13;;;23.70;80.30;;;;;;5053124;28;20345;-80
2022/07/20 01:14:45;;;;;;;10.30;3.05;;;23.60;80.50;;;;;;5072241;28;20040;-78
2022/07/20 01:17:11;;;;;;;10.10;2.95;;;23.60;80.50;;;;;;5075947;28;20058;-76
2022/07/20 01:19:37;;;;;;;3.65;2.55;;;23.50;80.60;;;;;;5077124;28;20033;-76
2022/07/20 01:22:03;;;;;;;12.52;3.10;;;23.50;80.60;;;;;;5089316;28;20032;-79
2022/07/20 01:24:28;;;;;;;8.73;3.55;;;23.50;80.80;;;;;;5034638;28;20470;-76
2022/07/20 01:26:54;;;;;;;5.57;3.10;;;23.40;81.20;;;;;;5085735;28;20044;-80
2022/07/20 01:29:20;;;;;;;6.95;3.30;;;23.40;81.20;;;;;;5082987;28;20132;-79
2022/07/20 01:31:46;;;;;;;5.90;2.90;;;23.40;81.20;;;;;;5036502;28;20047;-75
2022/07/20 01:34:11;;;;;;;6.53;3.13;;;23.30;81.40;;;;;;5069354;28;20048;-78
2022/07/20 01:36:37;;;;;;;12.05;3.67;;;23.30;81.50;;;;;;5052302;28;20125;-77
2022/07/20 01:39:03;;;;;;;7.40;3.20;;;23.20;81.60;;;;;;5055468;28;20056;-80
2022/07/20 01:41:29;;;;;;;5.43;2.92;;;23.10;81.50;;;;;;5038485;28;20096;-78
2022/07/20 01:43:54;;;;;;;11.65;3.30;;;23.10;81.80;;;;;;5087951;28;20093;-75
2022/07/20 01:46:20;;;;;;;7.25;3.22;;;23.10;82.00;;;;;;5054511;28;20037;-77
2022/07/20 01:48:46;;;;;;;7.97;3.50;;;23.00;81.90;;;;;;5058252;28;20056;-78
2022/07/20 01:51:11;;;;;;;7.45;3.17;;;23.00;81.80;;;;;;5051401;28;20406;-80
2022/07/20 01:53:37;;;;;;;10.13;2.97;;;22.90;81.90;;;;;;5086493;28;20440;-77
2022/07/20 01:56:06;;;;;;;7.80;3.10;;;22.90;81.90;;;;;;5067054;28;20044;-77
2022/07/20 01:58:34;;;;;;;10.95;3.30;;;22.90;81.80;;;;;;5082833;28;20044;-75
2022/07/20 02:01:00;;;;;;;12.32;3.22;;;22.80;81.70;;;;;;5067955;28;20553;-77
2022/07/20 02:03:26;;;;;;;4.72;3.40;;;22.90;81.70;;;;;;5050658;28;20049;-79
2022/07/20 02:05:51;;;;;;;11.75;3.28;;;22.80;81.80;;;;;;5085675;28;20033;-77
2022/07/20 02:08:17;;;;;;;8.57;3.10;;;22.80;81.80;;;;;;5067821;28;20384;-75
2022/07/20 02:10:42;;;;;;;11.82;3.22;;;22.70;81.80;;;;;;5066281;28;20064;-77
2022/07/20 02:13:08;;;;;;;10.68;2.90;;;22.70;82.10;;;;;;5065744;28;20040;-78
2022/07/20 02:18:18;;;;;;;6.07;3.07;;;22.80;81.80;;;;;;5051664;28;20040;-77
2022/07/20 02:20:43;;;;;;;7.95;3.17;;;22.70;81.80;;;;;;5036228;28;20040;-79
2022/07/20 02:23:11;;;;;;;7.95;3.30;;;22.70;82.00;;;;;;5088352;28;20442;-77
2022/07/20 02:25:37;;;;;;;6.53;2.97;;;22.70;82.00;;;;;;5034711;28;20051;-76
2022/07/20 02:28:07;;;;;;;10.02;3.30;;;22.70;82.00;;;;;;5065693;28;20097;-78
2022/07/20 02:30:33;;;;;;;8.55;3.03;;;22.70;82.10;;;;;;5035634;28;20436;-75
2022/07/20 02:33:01;;;;;;;5.97;3.03;;;22.60;82.00;;;;;;5066469;28;20488;-78
2022/07/20 02:35:26;;;;;;;11.00;3.25;;;22.70;82.00;;;;;;5072471;28;20108;-75
2022/07/20 02:37:52;;;;;;;10.13;3.42;;;22.60;82.20;;;;;;5069149;28;20148;-76
2022/07/20 02:40:18;;;;;;;9.32;3.40;;;22.60;82.10;;;;;;5044398;28;20028;-75
2022/07/20 02:42:46;;;;;;;9.63;3.10;;;22.50;82.10;;;;;;5083910;28;20127;-78
2022/07/20 02:45:12;;;;;;;11.30;3.13;;;22.50;82.30;;;;;;5049272;28;20036;-77
2022/07/20 02:47:45;;;;;;;7.35;3.40;;;22.50;82.50;;;;;;5032543;28;20076;-79
2022/07/20 02:50:11;;;;;;;9.73;2.97;;;22.50;82.90;;;;;;5044000;28;20047;-78
2022/07/20 02:52:41;;;;;;;12.93;3.30;;;22.40;82.80;;;;;;5068426;28;20135;-77
2022/07/20 02:55:08;;;;;;;8.40;3.42;;;22.40;82.90;;;;;;5037280;28;20052;-77
2022/07/20 02:57:52;;;;;;;9.77;2.67;;;22.40;83.00;;;;;;5041921;28;20037;-77
2022/07/20 03:00:19;;;;;;;7.57;3.40;;;22.30;83.60;;;;;;5048739;28;20045;-76
2022/07/20 03:02:46;;;;;;;8.77;3.42;;;22.30;83.50;;;;;;5044055;28;20032;-79
2022/07/20 03:05:12;;;;;;;7.55;3.30;;;22.20;83.60;;;;;;5065767;28;20040;-75
2022/07/20 03:07:38;;;;;;;8.13;3.30;;;22.20;83.80;;;;;;5028376;28;20416;-76
2022/07/20 03:10:06;;;;;;;4.85;3.17;;;22.10;84.00;;;;;;5037717;28;20710;-78
2022/07/20 03:12:33;;;;;;;8.43;3.17;;;22.10;84.20;;;;;;5046352;28;20042;-77
2022/07/20 03:14:59;;;;;;;6.75;3.40;;;22.10;84.70;;;;;;5051426;28;20043;-77
2022/07/20 03:17:25;;;;;;;12.65;3.20;;;22.10;84.80;;;;;;5083701;28;20044;-78
2022/07/20 03:19:51;;;;;;;6.22;3.20;;;22.00;84.90;;;;;;5049374;28;20036;-80
2022/07/20 03:22:16;;;;;;;7.15;3.13;;;22.00;84.80;;;;;;5083050;28;20056;-77
2022/07/20 03:24:42;;;;;;;11.10;3.40;;;22.00;84.80;;;;;;5084804;28;20043;-79
2022/07/20 03:27:08;;;;;;;9.07;3.10;;;22.00;85.00;;;;;;5082892;28;20430;-79
2022/07/20 03:29:33;;;;;;;7.93;3.13;;;22.00;85.10;;;;;;5046691;28;20040;-77
2022/07/20 03:31:59;;;;;;;9.50;3.40;;;22.00;85.10;;;;;;5082825;28;20071;-76
2022/07/20 03:34:25;;;;;;;6.18;3.15;;;22.00;85.00;;;;;;5028386;28;20090;-78
2022/07/20 03:36:51;;;;;;;11.50;3.45;;;22.00;85.10;;;;;;5049236;28;20379;-79
2022/07/20 03:39:16;;;;;;;9.52;3.15;;;22.00;85.30;;;;;;5066037;28;20045;-78
2022/07/20 03:41:42;;;;;;;9.85;3.42;;;22.00;84.90;;;;;;5083945;28;20051;-79
2022/07/20 03:44:08;;;;;;;8.73;3.72;;;22.00;84.90;;;;;;5040427;28;20099;-78
2022/07/20 03:46:34;;;;;;;7.50;3.60;;;22.00;85.40;;;;;;5079250;28;20044;-79
2022/07/20 03:49:00;;;;;;;8.23;3.22;;;22.00;84.80;;;;;;5035086;28;20040;-78
2022/07/20 03:51:26;;;;;;;11.32;3.55;;;22.00;85.10;;;;;;5048521;28;20110;-75
2022/07/20 03:53:51;;;;;;;9.48;3.70;;;22.00;84.90;;;;;;5082141;28;20036;-79
2022/07/20 03:56:17;;;;;;;9.25;3.15;;;22.00;84.80;;;;;;5036592;28;20060;-77
2022/07/20 03:58:43;;;;;;;9.70;3.22;;;22.10;84.70;;;;;;5078610;28;20044;-76
2022/07/20 04:01:08;;;;;;;12.57;3.20;;;22.00;84.70;;;;;;5053928;28;20036;-78
2022/07/20 04:03:34;;;;;;;9.48;3.35;;;22.10;84.80;;;;;;5035557;28;20082;-76
2022/07/20 04:06:01;;;;;;;10.82;3.50;;;22.10;85.00;;;;;;5085366;28;20036;-78
2022/07/20 04:08:26;;;;;;;11.25;3.20;;;22.10;84.70;;;;;;5036721;28;20036;-75
2022/07/20 04:10:52;;;;;;;7.32;3.80;;;22.00;84.60;;;;;;5053226;28;20040;-79
2022/07/20 04:13:18;;;;;;;9.23;3.33;;;22.10;84.80;;;;;;5051568;28;20036;-77
2022/07/20 04:15:44;;;;;;;8.25;3.40;;;22.10;84.90;;;;;;5088504;28;20044;-77
2022/07/20 04:18:09;;;;;;;8.98;3.25;;;22.10;84.80;;;;;;5038289;28;20036;-79
2022/07/20 04:20:35;;;;;;;5.07;3.05;;;22.20;84.80;;;;;;5038855;28;20033;-76
2022/07/20 04:23:03;;;;;;;8.82;3.20;;;22.20;84.80;;;;;;5073168;28;20048;-79
2022/07/20 04:25:29;;;;;;;10.60;3.50;;;22.30;84.80;;;;;;5084128;28;20033;-77
2022/07/20 04:27:55;;;;;;;6.05;3.10;;;22.20;85.40;;;;;;5030774;28;20441;-78
2022/07/20 04:30:20;;;;;;;5.88;3.10;;;22.30;85.00;;;;;;5035229;28;20032;-76
2022/07/20 04:32:46;;;;;;;7.25;3.20;;;22.20;84.90;;;;;;5068306;28;20047;-78
2022/07/20 04:35:12;;;;;;;4.38;2.97;;;22.40;85.10;;;;;;5036217;28;20051;-77
2022/07/20 04:37:38;;;;;;;11.73;3.60;;;22.40;85.00;;;;;;5035669;28;20052;-77
2022/07/20 04:40:05;;;;;;;6.63;3.20;;;22.30;84.90;;;;;;5073105;28;20094;-80
2022/07/20 04:42:31;;;;;;;13.27;3.33;;;22.40;84.70;;;;;;5067736;28;20052;-78
2022/07/20 04:44:57;;;;;;;4.90;2.92;;;22.50;84.70;;;;;;5050200;28;20093;-81
2022/07/20 04:47:23;;;;;;;7.80;3.17;;;22.60;84.60;;;;;;5055248;28;20036;-76
2022/07/20 04:49:48;;;;;;;8.60;3.25;;;22.70;84.70;;;;;;5035721;28;20365;-78
2022/07/20 04:52:15;;;;;;;8.57;3.30;;;22.70;84.80;;;;;;5051343;28;20041;-74
2022/07/20 04:54:41;;;;;;;7.18;3.38;;;22.70;85.00;;;;;;5081807;28;20422;-76
2022/07/20 04:57:07;;;;;;;7.00;3.40;;;22.80;84.80;;;;;;5044727;28;20044;-76
2022/07/20 04:59:33;;;;;;;9.05;3.47;;;22.90;84.90;;;;;;5047865;28;20067;-77
2022/07/20 05:01:58;;;;;;;8.18;3.60;;;23.00;85.20;;;;;;5050361;28;20822;-75
2022/07/20 05:04:24;;;;;;;7.00;3.35;;;23.10;84.60;;;;;;5048631;28;20032;-77
2022/07/20 05:06:50;;;;;;;10.18;3.20;;;23.20;85.30;;;;;;5024549;28;20052;-78
2022/07/20 05:09:15;;;;;;;10.75;3.28;;;23.20;84.50;;;;;;5062729;28;20036;-76
2022/07/20 05:11:41;;;;;;;10.25;3.40;;;23.30;84.40;;;;;;5048304;28;20044;-78
2022/07/20 05:14:08;;;;;;;8.50;3.50;;;23.30;84.40;;;;;;5048830;28;20446;-77
2022/07/20 05:16:34;;;;;;;9.20;3.22;;;23.40;83.90;;;;;;5047600;28;20179;-76
2022/07/20 05:19:00;;;;;;;12.68;3.70;;;23.40;83.80;;;;;;5042158;28;20037;-75
2022/07/20 05:21:26;;;;;;;10.20;3.75;;;23.40;84.00;;;;;;5041890;28;20051;-75
2022/07/20 05:23:52;;;;;;;9.73;3.65;;;23.60;84.00;;;;;;5051880;28;20498;-79
2022/07/20 05:26:17;;;;;;;14.10;3.67;;;23.60;83.90;;;;;;5042201;28;20037;-78
2022/07/20 05:28:43;;;;;;;21.70;3.72;;;23.60;83.70;;;;;;5048387;28;20045;-76
2022/07/20 05:31:09;;;;;;;9.75;3.40;;;23.70;83.60;;;;;;5061918;28;20183;-77
2022/07/20 05:33:38;;;;;;;5.68;3.72;;;23.70;83.50;;;;;;5077933;28;20071;-78
2022/07/20 05:36:04;;;;;;;9.73;3.33;;;23.80;83.80;;;;;;5078922;28;20088;-78
2022/07/20 05:38:31;;;;;;;8.38;3.88;;;23.90;84.10;;;;;;5079988;28;20063;-79
2022/07/20 05:40:57;;;;;;;15.10;4.03;;;23.90;84.20;;;;;;5035894;28;20041;-77
2022/07/20 05:43:23;;;;;;;16.52;3.72;;;24.00;84.40;;;;;;5063489;28;20071;-80
2022/07/20 05:45:49;;;;;;;11.27;4.30;;;24.00;85.00;;;;;;5033651;28;20055;-79
2022/07/20 05:48:15;;;;;;;9.52;3.63;;;24.00;85.00;;;;;;5063599;28;20049;-77
2022/07/20 05:50:42;;;;;;;13.65;3.40;;;24.00;85.10;;;;;;5062283;28;20152;-77
2022/07/20 05:53:09;;;;;;;10.45;3.92;;;24.00;85.20;;;;;;5044518;28;20041;-78
2022/07/20 05:55:35;;;;;;;6.18;3.30;;;24.10;84.60;;;;;;5028637;28;20083;-79
2022/07/20 05:58:03;;;;;;;7.90;3.50;;;24.20;85.20;;;;;;5022955;28;20663;-77
2022/07/20 06:00:29;;;;;;;9.32;3.50;;;24.20;85.60;;;;;;5058228;28;20048;-77
2022/07/20 06:02:55;;;;;;;8.70;3.50;;;24.20;84.80;;;;;;5028423;28;20486;-78
2022/07/20 06:05:20;;;;;;;7.53;3.67;;;24.20;84.80;;;;;;5029242;28;20048;-77
2022/07/20 06:07:46;;;;;;;9.05;3.40;;;24.20;85.00;;;;;;5045762;28;20388;-77
2022/07/20 06:10:12;;;;;;;8.63;3.70;;;24.30;85.30;;;;;;5011072;28;20144;-78
2022/07/20 06:12:38;;;;;;;11.68;3.45;;;24.30;85.60;;;;;;5045042;28;20040;-78
2022/07/20 06:15:04;;;;;;;8.85;3.35;;;24.30;85.80;;;;;;5024451;28;20051;-77
2022/07/20 06:17:38;;;;;;;9.48;3.97;;;24.30;85.80;;;;;;5054974;28;20127;-79
2022/07/20 06:20:09;;;;;;;12.00;3.42;;;24.40;86.00;;;;;;5043450;28;20059;-78
2022/07/20 06:22:36;;;;;;;15.13;3.53;;;24.40;85.80;;;;;;5047004;28;20402;-79
2022/07/20 06:25:04;;;;;;;10.25;3.45;;;24.50;86.50;;;;;;5046284;28;20055;-80
2022/07/20 06:27:30;;;;;;;9.82;3.40;;;24.50;86.60;;;;;;5028336;28;20056;-81
2022/07/20 06:29:56;;;;;;;8.73;3.80;;;24.60;86.90;;;;;;5063425;28;20087;-78
2022/07/20 06:32:22;;;;;;;7.07;3.50;;;24.60;86.90;;;;;;5050273;28;20047;-77
2022/07/20 06:34:48;;;;;;;8.98;4.05;;;24.70;87.50;;;;;;5080731;28;20064;-75
2022/07/20 06:37:13;;;;;;;9.93;3.67;;;24.80;87.70;;;;;;5081600;28;20045;-75
2022/07/20 06:39:39;;;;;;;14.35;3.65;;;24.80;87.80;;;;;;5068030;28;20037;-75
2022/07/20 06:42:05;;;;;;;14.05;3.63;;;24.90;87.70;;;;;;5061575;28;20046;-82
2022/07/20 06:44:34;;;;;;;12.10;3.65;;;25.00;87.80;;;;;;5067055;28;20040;-77
2022/07/20 06:47:03;;;;;;;14.38;3.70;;;25.10;88.00;;;;;;5030525;28;20033;-76
2022/07/20 06:49:29;;;;;;;10.63;3.22;;;25.20;88.20;;;;;;5088858;28;20032;-78
2022/07/20 06:51:55;;;;;;;14.20;3.70;;;25.20;87.30;;;;;;5087522;28;20484;-76
2022/07/20 06:54:21;;;;;;;11.13;3.90;;;25.40;86.70;;;;;;5086829;28;20117;-81
2022/07/20 06:56:46;;;;;;;12.52;3.63;;;25.50;86.00;;;;;;5035005;28;20075;-77
2022/07/20 06:59:12;;;;;;;13.63;3.95;;;25.60;85.20;;;;;;5067565;28;20432;-78
2022/07/20 07:01:38;;;;;;;10.55;3.70;;;25.80;84.20;;;;;;5032366;28;20507;-78
2022/07/20 07:04:04;;;;;;;12.65;3.50;;;25.90;83.70;;;;;;5070073;28;20456;-78
2022/07/20 07:06:30;;;;;;;18.48;4.20;;;25.90;83.30;;;;;;5037646;28;20035;-76
2022/07/20 07:08:57;;;;;;;7.95;3.70;;;26.00;83.40;;;;;;5084172;28;20048;-76
2022/07/20 07:11:23;;;;;;;12.13;3.80;;;26.00;83.10;;;;;;5060388;28;20479;-79
2022/07/20 07:13:49;;;;;;;10.10;4.72;;;26.10;83.00;;;;;;5040041;28;20044;-77
2022/07/20 07:16:15;;;;;;;16.67;4.65;;;26.10;82.80;;;;;;5044955;28;20036;-80
2022/07/20 07:18:40;;;;;;;11.02;4.05;;;26.20;83.20;;;;;;5061259;28;20844;-78
2022/07/20 07:21:06;;;;;;;18.60;4.68;;;26.20;83.10;;;;;;5022715;28;20040;-77
2022/07/20 07:23:33;;;;;;;20.85;4.28;;;26.20;83.30;;;;;;5044088;28;20042;-76
2022/07/20 07:25:59;;;;;;;11.18;4.28;;;26.30;83.40;;;;;;5042236;28;20067;-80
2022/07/20 07:28:24;;;;;;;15.63;4.78;;;26.40;83.10;;;;;;5029198;28;20083;-80
2022/07/20 07:30:50;;;;;;;14.98;4.70;;;26.40;83.80;;;;;;5028175;28;20380;-76
2022/07/20 07:33:17;;;;;;;12.02;4.60;;;26.40;84.10;;;;;;5046118;28;20040;-76
2022/07/20 07:35:43;;;;;;;13.63;5.13;;;26.50;84.30;;;;;;5043772;28;20133;-76
2022/07/20 07:38:09;;;;;;;17.33;4.90;;;26.60;84.50;;;;;;5045671;28;20391;-80
2022/07/20 07:40:35;;;;;;;16.92;5.43;;;26.60;84.60;;;;;;5077346;28;20443;-77
2022/07/20 07:43:14;;;;;;;13.95;5.40;;;26.70;84.50;;;;;;5044281;28;20100;-78
2022/07/20 07:45:39;;;;;;;11.68;6.03;;;26.70;84.80;;;;;;5078113;28;20047;-75
2022/07/20 07:48:09;;;;;;;16.63;6.10;;;26.80;85.50;;;;;;5074881;28;20048;-78
2022/07/20 07:50:37;;;;;;;14.27;5.82;;;26.80;86.00;;;;;;5046575;28;20036;-78
2022/07/20 07:53:03;;;;;;;14.43;6.38;;;26.90;86.40;;;;;;5060584;28;20040;-78
2022/07/20 07:55:29;;;;;;;14.98;5.75;;;26.90;86.60;;;;;;5064168;28;20123;-80
2022/07/20 07:57:54;;;;;;;14.25;6.82;;;27.00;87.00;;;;;;5081201;28;20136;-77
2022/07/20 08:00:20;;;;;;;18.00;6.75;;;27.10;87.20;;;;;;5084067;28;20033;-80
2022/07/20 08:02:46;;;;;;;14.32;6.40;;;27.00;87.20;;;;;;5083922;28;20098;-76
2022/07/20 08:05:12;;;;;;;21.40;6.85;;;27.00;87.80;;;;;;5028846;28;20045;-75
2022/07/20 08:07:40;;;;;;;23.55;7.10;;;27.00;88.10;;;;;;5032402;28;20047;-78
2022/07/20 08:10:07;;;;;;;18.08;7.43;;;27.00;88.60;;;;;;5061972;28;20032;-76
2022/07/20 08:12:34;;;;;;;19.95;7.57;;;27.10;89.00;;;;;;5025266;28;20056;-81
2022/07/20 08:14:59;;;;;;;16.98;8.63;;;27.10;89.40;;;;;;5041819;28;20529;-76
2022/07/20 08:17:25;;;;;;;13.57;8.02;;;27.20;90.10;;;;;;5072166;28;20049;-75
2022/07/20 08:19:52;;;;;;;21.67;8.95;;;27.20;90.20;;;;;;5040816;28;22158;-79
2022/07/20 08:22:19;;;;;;;21.45;8.65;;;27.30;90.60;;;;;;5077548;28;20456;-77
2022/07/20 08:24:45;;;;;;;18.45;9.35;;;27.30;90.70;;;;;;5045628;28;20049;-78
2022/07/20 08:27:11;;;;;;;19.38;9.25;;;27.30;90.70;;;;;;5043829;28;20041;-76
2022/07/20 08:29:37;;;;;;;19.00;9.43;;;27.40;90.90;;;;;;5033180;28;20491;-76
2022/07/20 08:32:03;;;;;;;23.35;9.40;;;27.50;91.00;;;;;;5072227;28;20040;-76
2022/07/20 08:34:29;;;;;;;27.05;9.85;;;27.60;91.10;;;;;;5048979;28;20043;-76
2022/07/20 08:36:55;;;;;;;19.35;9.98;;;27.60;91.30;;;;;;5085146;28;20387;-79
2022/07/20 08:39:22;;;;;;;27.88;11.52;;;27.70;91.50;;;;;;5041595;28;21490;-78
2022/07/20 08:41:48;;;;;;;24.15;10.80;;;27.80;91.80;;;;;;5047800;28;20037;-78
2022/07/20 08:44:13;;;;;;;22.42;11.80;;;27.80;92.10;;;;;;5063458;28;20061;-79
2022/07/20 08:46:43;;;;;;;26.67;12.10;;;27.80;92.30;;;;;;5064262;28;20130;-77
2022/07/20 08:49:08;;;;;;;26.85;13.13;;;27.90;92.50;;;;;;5038555;28;20484;-77
2022/07/20 08:51:34;;;;;;;27.45;13.30;;;27.90;92.50;;;;;;5035684;28;20056;-77
2022/07/20 08:54:00;;;;;;;24.80;13.35;;;27.90;92.60;;;;;;5064489;28;20052;-79
2022/07/20 08:56:27;;;;;;;27.27;14.07;;;28.00;92.70;;;;;;5079391;28;20105;-79
2022/07/20 08:58:52;;;;;;;29.90;14.07;;;28.00;92.80;;;;;;5048287;28;20475;-79
2022/07/20 09:01:19;;;;;;;34.08;16.48;;;28.10;93.10;;;;;;5037794;28;20056;-80
2022/07/20 09:04:02;;;;;;;30.70;14.82;;;28.20;93.20;;;;;;5081828;28;20036;-80
2022/07/20 09:06:34;;;;;;;32.17;14.63;;;28.30;93.30;;;;;;5050160;28;20475;-80
2022/07/20 09:09:07;;;;;;;28.58;15.13;;;28.40;93.90;;;;;;5066559;28;20129;-79
2022/07/20 09:11:33;;;;;;;30.17;15.98;;;28.50;94.20;;;;;;5045222;28;20105;-81
2022/07/20 09:13:59;;;;;;;29.05;16.88;;;28.60;94.10;;;;;;5035674;28;20041;-78
2022/07/20 09:16:43;;;;;;;31.92;17.52;;;28.50;93.70;;;;;;5096874;28;20036;-80
2022/07/20 09:19:10;;;;;;;33.65;18.05;;;28.60;93.30;;;;;;5039301;28;20043;-81
2022/07/20 09:21:35;;;;;;;33.60;16.90;;;28.70;93.50;;;;;;5051068;28;20107;-76
2022/07/20 09:24:07;;;;;;;34.53;17.25;;;28.70;93.60;;;;;;5033718;28;20458;-80
2022/07/20 09:26:34;;;;;;;30.75;17.30;;;28.70;94.00;;;;;;5029884;28;20128;-77
2022/07/20 09:29:03;;;;;;;30.20;17.40;;;28.70;94.10;;;;;;5067081;28;20478;-82
2022/07/20 09:31:37;;;;;;;31.90;17.35;;;28.70;94.20;;;;;;5079369;28;20059;-80
2022/07/20 09:34:12;;;;;;;36.28;18.75;;;28.60;94.20;;;;;;5063837;28;20056;-79
2022/07/20 09:36:45;;;;;;;37.40;18.45;;;28.50;94.00;;;;;;5064520;28;20139;-79
2022/07/20 09:39:19;;;;;;;41.05;19.45;;;28.70;94.30;;;;;;5045569;28;20135;-79
2022/07/20 09:41:51;;;;;;;;;;;28.70;94.20;;;;;;5040319;28;20040;-82
2022/07/20 09:44:25;;;;;;;33.03;17.90;;;28.70;94.30;;;;;;5050820;28;19997;-77
2022/07/20 09:46:51;;;;;;;40.90;18.23;;;28.70;94.90;;;;;;5089167;28;20086;-77
2022/07/20 09:49:17;;;;;;;36.15;18.67;;;28.80;94.80;;;;;;5086447;28;20036;-78
2022/07/20 09:51:45;;;;;;;34.80;17.98;;;28.80;94.80;;;;;;5059463;28;20044;-81
2022/07/20 09:54:17;;;;;;;37.28;17.77;;;29.00;94.50;;;;;;5051528;28;20740;-80
2022/07/20 09:56:47;;;;;;;34.72;17.05;;;29.00;93.20;;;;;;5033903;28;20163;-83
2022/07/20 09:59:14;;;;;;;32.40;16.40;;;28.90;92.70;;;;;;5044870;28;20123;-79
2022/07/20 10:01:49;;;;;;;37.22;17.42;;;28.90;92.70;;;;;;5064840;28;20057;-80
2022/07/20 10:04:16;;;;;;;34.80;17.75;;;29.00;92.90;;;;;;5023315;28;20032;-81
2022/07/20 10:06:45;;;;;;;27.05;17.08;;;29.10;92.90;;;;;;5083435;28;20045;-80
2022/07/20 10:09:14;;;;;;;29.70;17.00;;;29.30;93.40;;;;;;5082425;28;20111;-83
2022/07/20 10:11:40;;;;;;;29.38;17.70;;;29.30;92.80;;;;;;5081758;28;20127;-81
2022/07/20 10:14:10;;;;;;;29.08;17.90;;;29.40;93.10;;;;;;5053555;28;20036;-81
2022/07/20 10:16:48;;;;;;;28.05;16.63;;;29.40;93.20;;;;;;5028636;28;20091;-82
2022/07/20 10:19:17;;;;;;;28.27;13.52;;;29.20;91.10;;;;;;5067501;28;20048;-81
2022/07/20 10:21:52;;;;;;;22.13;14.15;;;29.30;88.90;;;;;;5037544;28;20494;-82
2022/07/20 10:24:27;;;;;;;32.72;14.38;;;29.30;89.50;;;;;;5070748;28;20060;-79
2022/07/20 10:27:23;;;;;;;26.70;14.73;;;29.20;90.20;;;;;;5059622;28;20121;-82
2022/07/20 10:29:52;;;;;;;20.15;13.90;;;29.30;90.90;;;;;;5048039;28;20036;-82
2022/07/20 10:32:23;;;;;;;27.88;13.60;;;29.40;90.70;;;;;;5050439;28;20071;-79
2022/07/20 10:34:58;;;;;;;23.52;12.95;;;29.40;90.00;;;;;;5061421;28;20091;-83
2022/07/20 10:37:37;;;;;;;29.10;13.27;;;29.40;88.90;;;;;;5063818;28;20415;-81
2022/07/20 10:40:03;;;;;;;24.25;12.57;;;29.60;89.50;;;;;;5090073;28;20137;-82
2022/07/20 10:42:37;;;;;;;24.02;11.88;;;29.70;89.90;;;;;;5065530;28;20074;-82
2022/07/20 10:45:27;;;;;;;;;;;29.70;88.90;;;;;;5046011;28;20050;-80
2022/07/20 10:47:57;;;;;;;23.00;11.13;;;29.80;88.50;;;;;;5047853;28;19920;-79
2022/07/20 10:50:33;;;;;;;19.95;10.43;;;29.80;89.00;;;;;;5076992;28;20076;-83
2022/07/20 10:53:21;;;;;;;19.83;9.15;;;29.70;86.40;;;;;;5061267;28;20048;-83
2022/07/20 10:55:55;;;;;;;18.50;9.98;;;29.60;86.00;;;;;;5043163;28;20654;-79
2022/07/20 10:58:27;;;;;;;19.67;9.75;;;29.60;86.20;;;;;;5039808;28;20039;-81
2022/07/20 11:00:59;;;;;;;22.45;9.85;;;29.70;87.00;;;;;;5031338;28;20036;-80
2022/07/20 11:03:40;;;;;;;18.08;9.57;;;29.90;87.60;;;;;;5043910;28;20074;-78
2022/07/20 11:06:18;;;;;;;19.40;9.15;;;29.80;87.60;;;;;;5048720;28;20037;-80
2022/07/20 11:08:52;;;;;;;17.58;9.40;;;30.00;88.30;;;;;;5087543;28;20098;-76
2022/07/20 11:11:22;;;;;;;15.82;8.80;;;30.10;86.80;;;;;;5089028;28;20135;-78
2022/07/20 11:13:48;;;;;;;12.20;8.60;;;30.10;86.10;;;;;;5076859;28;20139;-80
2022/07/20 11:16:18;;;;;;;21.30;8.45;;;30.10;86.40;;;;;;5034049;28;20037;-77
2022/07/20 11:18:44;;;;;;;16.25;8.63;;;30.10;86.70;;;;;;5061511;28;20060;-77
2022/07/20 11:21:13;;;;;;;16.73;8.40;;;30.10;85.70;;;;;;5070372;28;20036;-78
2022/07/20 11:23:45;;;;;;;19.83;9.05;;;30.10;85.90;;;;;;5066195;28;20136;-77
2022/07/20 11:26:13;;;;;;;20.25;9.38;;;30.30;85.50;;;;;;5070737;28;20049;-80
2022/07/20 11:28:53;;;;;;;17.50;9.27;;;30.70;85.50;;;;;;5036304;28;20052;-77
2022/07/20 11:31:28;;;;;;;14.23;9.63;;;30.80;85.00;;;;;;5067284;28;20094;-81
2022/07/20 11:33:55;;;;;;;17.17;9.23;;;30.80;84.70;;;;;;5050425;28;20052;-79
2022/07/20 11:36:24;;;;;;;18.92;9.40;;;30.70;85.10;;;;;;5053592;28;20060;-77
2022/07/20 11:38:55;;;;;;;13.70;8.85;;;30.90;85.20;;;;;;5052719;28;20048;-77
2022/07/20 11:41:38;;;;;;;18.75;8.93;;;31.00;86.10;;;;;;5049255;28;20044;-78
2022/07/20 11:44:06;;;;;;;14.10;9.13;;;31.10;85.30;;;;;;5049959;28;20098;-80
2022/07/20 11:46:40;;;;;;;14.52;9.02;;;31.10;85.20;;;;;;5086002;28;20037;-79
2022/07/20 11:49:15;;;;;;;16.00;9.18;;;31.30;83.70;;;;;;5054894;28;20052;-80
2022/07/20 11:51:51;;;;;;;15.60;8.80;;;31.50;84.90;;;;;;5040644;28;20056;-76
2022/07/20 11:54:26;;;;;;;13.88;8.27;;;31.40;85.00;;;;;;5062097;28;20055;-76
2022/07/20 11:56:53;;;;;;;15.93;7.15;;;31.40;84.60;;;;;;5056805;28;20164;-81
2022/07/20 11:59:19;;;;;;;12.18;7.22;;;31.50;83.20;;;;;;5034356;28;20033;-79
2022/07/20 12:01:47;;;;;;;12.00;6.55;;;31.30;83.70;;;;;;5047109;28;20388;-80
2022/07/20 12:04:14;;;;;;;16.05;6.40;;;31.50;84.00;;;;;;5032746;28;20045;-76
2022/07/20 12:06:41;;;;;;;16.33;6.47;;;31.50;84.20;;;;;;5030687;28;20041;-81
2022/07/20 12:09:12;;;;;;;12.80;6.03;;;31.60;83.80;;;;;;5066499;28;20509;-77
2022/07/20 12:11:57;;;;;;;11.65;6.13;;;31.90;83.20;;;;;;5034467;28;20112;-82
2022/07/20 12:25:14;;;;;;;14.48;5.72;;;32.00;78.60;;;;;;5083005;28;20124;-75
2022/07/20 12:27:42;;;;;;;15.15;6.30;;;31.90;80.00;;;;;;5082887;28;20048;-76
2022/07/20 12:30:51;;;;;;;12.43;6.70;;;32.20;80.60;;;;;;5062935;28;20046;-80
2022/07/20 12:33:17;;;;;;;13.90;6.65;;;32.20;82.60;;;;;;5084125;28;20044;-79
2022/07/20 12:35:45;;;;;;;13.73;6.47;;;32.50;82.70;;;;;;5091428;28;20052;-82
2022/07/20 12:38:14;;;;;;;14.85;6.85;;;32.60;80.80;;;;;;5031555;28;20442;-84
2022/07/20 12:40:50;;;;;;;12.85;6.88;;;32.50;81.10;;;;;;5034612;28;20060;-78
2022/07/20 12:43:36;;;;;;;9.98;6.60;;;32.70;81.50;;;;;;5044397;28;20044;-79
2022/07/20 12:46:10;;;;;;;14.07;7.18;;;32.50;79.70;;;;;;5071909;28;20138;-80
2022/07/20 12:48:47;;;;;;;14.82;7.93;;;32.30;79.70;;;;;;5028681;28;20071;-81
2022/07/20 12:51:15;;;;;;;14.35;8.02;;;32.40;79.20;;;;;;5033615;28;20032;-77
2022/07/20 12:53:42;;;;;;;17.80;7.78;;;32.60;79.70;;;;;;5035707;28;20041;-82
2022/07/20 12:56:09;;;;;;;14.35;8.10;;;32.70;80.10;;;;;;5034534;28;20048;-78
2022/07/20 12:58:35;;;;;;;15.57;7.13;;;32.80;79.60;;;;;;5049757;28;20110;-77